Terminal Aerodrome Forecast
Issued by NWS

Home | Current Version | Previous Version | Text Only | Print | Product List | Glossary On
Versions: 1 2 3 4 5 6 7 8 9 10 11 12
000
FTUS46 KMTR 300544
TAFOAK
TAF
KOAK 300544Z 3006/3112 28015G20KT P6SM FEW010 SCT150 BKN300
     FM301700 29012KT P6SM FEW010 SCT150 BKN250
     FM302100 28015G22KT P6SM BKN150 OVC200
     FM310400 28015G19KT P6SM SCT150 BKN200=

USA.gov is the U.S. government's official web portal to all federal, state and local government web resources and services.